createdAt,value
2018-01-20T00:01:39.063Z,4.85
2018-01-20T00:04:06.778Z,3.50
2018-01-20T00:06:34.353Z,3.78
2018-01-20T00:09:01.909Z,3.60
2018-01-20T00:11:41.235Z,3.28
2018-01-20T00:14:08.786Z,3.45
2018-01-20T00:16:36.357Z,3.28
2018-01-20T00:19:03.942Z,3.17
2018-01-20T00:21:32.423Z,3.58
2018-01-20T00:23:59.989Z,3.90
2018-01-20T00:26:33.276Z,3.65
2018-01-20T00:29:00.873Z,4.03
2018-01-20T00:31:28.442Z,4.25
2018-01-20T00:33:56.004Z,3.83
2018-01-20T00:36:23.777Z,3.65
2018-01-20T00:38:52.085Z,3.53
2018-01-20T00:41:19.629Z,3.35
2018-01-20T00:43:48.048Z,3.67
2018-01-20T00:46:15.630Z,3.72
2018-01-20T00:48:43.185Z,3.33
2018-01-20T00:51:10.763Z,3.40
2018-01-20T00:53:38.366Z,3.87
2018-01-20T00:56:06.666Z,3.53
2018-01-20T00:58:34.277Z,3.50
2018-01-20T01:01:01.831Z,3.50
2018-01-20T01:03:29.396Z,3.17
2018-01-20T01:05:56.917Z,2.72
2018-01-20T01:08:24.516Z,3.42
2018-01-20T01:10:52.144Z,3.00
2018-01-20T01:13:19.700Z,3.42
2018-01-20T01:15:47.310Z,3.62
2018-01-20T01:18:14.855Z,3.33
2018-01-20T01:20:42.421Z,3.33
2018-01-20T01:23:10.741Z,3.10
2018-01-20T01:25:38.320Z,3.92
2018-01-20T01:28:05.924Z,3.58
2018-01-20T01:30:33.478Z,3.33
2018-01-20T01:33:01.028Z,3.12
2018-01-20T01:35:28.598Z,3.40
2018-01-20T01:37:56.227Z,3.00
2018-01-20T01:40:24.562Z,2.92
2018-01-20T01:42:52.193Z,2.42
2018-01-20T01:45:19.790Z,2.60
2018-01-20T01:47:47.320Z,2.72
2018-01-20T01:50:14.869Z,2.75
2018-01-20T01:52:42.429Z,3.20
2018-01-20T01:55:10.034Z,3.00
2018-01-20T01:57:37.596Z,3.22
2018-01-20T02:00:05.141Z,2.45
2018-01-20T02:02:32.714Z,2.42
2018-01-20T02:05:01.073Z,4.05
2018-01-20T02:07:28.628Z,2.55
2018-01-20T02:09:56.187Z,3.55
2018-01-20T02:12:23.744Z,2.50
2018-01-20T02:14:51.297Z,3.08
2018-01-20T02:17:18.873Z,2.55
2018-01-20T02:19:46.413Z,3.40
2018-01-20T02:22:13.983Z,3.25
2018-01-20T02:24:41.586Z,2.65
2018-01-20T02:27:09.129Z,1.87
2018-01-20T02:29:36.793Z,2.10
2018-01-20T02:32:04.352Z,2.33
2018-01-20T02:34:31.900Z,1.98
2018-01-20T02:36:59.455Z,1.90
2018-01-20T02:39:27.000Z,2.10
2018-01-20T02:41:54.557Z,1.90
2018-01-20T02:44:22.111Z,2.08
2018-01-20T02:46:49.672Z,2.15
2018-01-20T02:49:17.230Z,2.35
2018-01-20T02:51:44.783Z,3.00
2018-01-20T02:54:12.363Z,1.95
2018-01-20T02:56:39.918Z,2.22
2018-01-20T02:59:07.477Z,2.10
2018-01-20T03:01:35.045Z,2.08
2018-01-20T03:04:02.925Z,2.60
2018-01-20T03:06:30.495Z,2.40
2018-01-20T03:08:58.041Z,2.25
2018-01-20T03:11:25.676Z,1.95
2018-01-20T03:13:53.249Z,2.37
2018-01-20T03:16:20.817Z,2.50
2018-01-20T03:18:48.365Z,2.70
2018-01-20T03:21:16.033Z,2.30
2018-01-20T03:23:43.597Z,2.45
2018-01-20T03:26:11.130Z,2.97
2018-01-20T03:28:38.701Z,2.45
2018-01-20T03:31:06.251Z,1.80
2018-01-20T03:33:33.799Z,3.33
2018-01-20T03:36:02.113Z,2.75
2018-01-20T03:38:29.661Z,3.00
2018-01-20T03:40:57.213Z,3.85
2018-01-20T03:43:24.788Z,3.55
2018-01-20T03:45:52.337Z,3.60
2018-01-20T03:48:19.891Z,3.10
2018-01-20T03:50:47.432Z,2.90
2018-01-20T03:53:15.757Z,4.00
2018-01-20T03:55:43.349Z,3.67
2018-01-20T03:58:10.922Z,3.70
2018-01-20T04:00:39.445Z,2.90
2018-01-20T04:03:06.996Z,3.37
2018-01-20T04:05:34.542Z,4.25
2018-01-20T04:08:02.899Z,3.53
2018-01-20T04:10:31.214Z,2.90
2018-01-20T04:12:58.763Z,2.97
2018-01-20T04:15:27.090Z,4.68
2018-01-20T04:17:55.184Z,4.30
2018-01-20T04:20:22.729Z,4.28
2018-01-20T04:22:50.296Z,4.47
2018-01-20T04:25:17.882Z,3.42
2018-01-20T04:27:45.436Z,3.17
2018-01-20T04:30:12.995Z,3.65
2018-01-20T04:32:40.541Z,4.15
2018-01-20T04:35:08.252Z,3.95
2018-01-20T04:37:36.569Z,3.60
2018-01-20T04:40:04.133Z,3.75
2018-01-20T04:42:31.689Z,5.97
2018-01-20T04:44:59.250Z,4.40
2018-01-20T04:47:26.957Z,4.47
2018-01-20T04:49:54.508Z,3.62
2018-01-20T04:52:22.078Z,4.25
2018-01-20T04:54:49.613Z,4.72
2018-01-20T04:57:17.178Z,6.03
2018-01-20T04:59:44.719Z,3.28
2018-01-20T05:02:12.272Z,3.62
2018-01-20T05:04:39.830Z,4.65
2018-01-20T05:07:07.398Z,3.62
2018-01-20T05:09:34.931Z,3.08
2018-01-20T05:12:02.473Z,4.03
2018-01-20T05:14:30.782Z,4.65
2018-01-20T05:16:58.357Z,4.85
2018-01-20T05:19:25.913Z,3.55
2018-01-20T05:21:53.456Z,3.12
2018-01-20T05:24:21.021Z,3.62
2018-01-20T05:26:48.651Z,3.78
2018-01-20T05:29:16.193Z,2.92
2018-01-20T05:31:43.789Z,3.17
2018-01-20T05:34:12.103Z,2.80
2018-01-20T05:36:39.649Z,3.67
2018-01-20T05:39:07.193Z,3.53
2018-01-20T05:41:35.520Z,2.92
2018-01-20T05:44:03.141Z,3.00
2018-01-20T05:46:30.980Z,4.60
2018-01-20T05:48:58.962Z,3.33
2018-01-20T05:51:27.357Z,3.80
2018-01-20T05:53:55.681Z,3.33
2018-01-20T05:56:23.246Z,4.10
2018-01-20T05:58:50.801Z,3.30
2018-01-20T06:01:18.367Z,4.25
2018-01-20T06:03:45.909Z,3.28
2018-01-20T06:06:13.575Z,3.92
2018-01-20T06:08:41.117Z,4.05
2018-01-20T06:11:08.689Z,3.95
2018-01-20T06:13:36.259Z,3.47
2018-01-20T06:16:03.825Z,3.40
2018-01-20T06:18:31.406Z,3.20
2018-01-20T06:20:58.981Z,3.00
2018-01-20T06:23:26.560Z,3.20
2018-01-20T06:25:54.114Z,2.55
2018-01-20T06:28:21.657Z,2.62
2018-01-20T06:30:49.200Z,2.62
2018-01-20T06:33:16.776Z,2.70
2018-01-20T06:35:44.338Z,2.45
2018-01-20T06:38:11.901Z,2.30
2018-01-20T06:40:39.469Z,2.53
2018-01-20T06:43:07.054Z,2.70
2018-01-20T06:45:35.366Z,2.95
2018-01-20T06:48:02.928Z,2.37
2018-01-20T06:50:30.508Z,2.50
2018-01-20T06:52:58.256Z,2.33
2018-01-20T06:55:25.846Z,2.55
2018-01-20T06:57:53.404Z,2.95
2018-01-20T07:00:20.962Z,2.20
2018-01-20T07:02:48.580Z,2.47
2018-01-20T07:05:16.144Z,2.20
2018-01-20T07:07:43.681Z,2.37
2018-01-20T07:10:11.452Z,1.95
2018-01-20T07:12:39.052Z,2.50
2018-01-20T07:15:06.780Z,2.55
2018-01-20T07:17:34.350Z,2.05
2018-01-20T07:20:02.664Z,2.78
2018-01-20T07:22:30.229Z,3.00
2018-01-20T07:24:57.782Z,3.40
2018-01-20T07:27:25.341Z,2.85
2018-01-20T07:29:52.883Z,2.62
2018-01-20T07:32:20.452Z,2.85
2018-01-20T07:34:47.998Z,3.08
2018-01-20T07:37:16.372Z,2.95
2018-01-20T07:39:44.671Z,2.97
2018-01-20T07:42:12.282Z,3.37
2018-01-20T07:44:39.833Z,2.90
2018-01-20T07:47:07.382Z,2.95
2018-01-20T07:49:34.940Z,2.92
2018-01-20T07:52:02.498Z,2.50
2018-01-20T07:54:30.041Z,2.12
2018-01-20T07:56:57.598Z,2.10
2018-01-20T07:59:25.172Z,2.17
2018-01-20T08:01:52.722Z,2.50
2018-01-20T08:04:20.828Z,2.72
2018-01-20T08:06:48.368Z,2.72
2018-01-20T08:09:16.107Z,2.85
2018-01-20T08:11:44.442Z,3.17
2018-01-20T08:14:11.990Z,2.85
2018-01-20T08:16:39.543Z,3.08
2018-01-20T08:19:07.136Z,3.65
2018-01-20T08:21:35.469Z,3.22
2018-01-20T08:24:03.043Z,3.92
2018-01-20T08:26:30.814Z,4.18
2018-01-20T08:28:58.373Z,3.67
2018-01-20T08:31:25.926Z,2.97
2018-01-20T08:33:53.463Z,3.00
2018-01-20T08:36:21.784Z,3.33
2018-01-20T08:38:49.378Z,2.90
2018-01-20T08:41:16.932Z,3.05
2018-01-20T08:43:44.548Z,2.67
2018-01-20T08:46:12.132Z,2.30
2018-01-20T08:48:39.893Z,2.83
2018-01-20T08:51:07.448Z,2.67
2018-01-20T08:53:35.010Z,3.50
2018-01-20T08:56:02.563Z,3.33
2018-01-20T08:58:30.154Z,2.87
2018-01-20T09:00:57.709Z,3.35
2018-01-20T09:03:25.259Z,2.87
2018-01-20T09:05:52.796Z,3.30
2018-01-20T09:08:20.354Z,2.15
2018-01-20T09:10:47.920Z,2.55
2018-01-20T09:13:15.468Z,3.05
2018-01-20T09:15:43.805Z,2.87
2018-01-20T09:18:11.437Z,3.25
2018-01-20T09:20:39.022Z,3.08
2018-01-20T09:23:06.589Z,3.00
2018-01-20T09:25:34.138Z,3.92
2018-01-20T09:28:01.991Z,3.08
2018-01-20T09:30:29.546Z,3.65
2018-01-20T09:32:57.106Z,3.30
2018-01-20T09:35:24.672Z,3.10
2018-01-20T09:37:52.254Z,3.28
2018-01-20T09:40:19.886Z,3.95
2018-01-20T09:42:47.472Z,3.65
2018-01-20T09:45:15.093Z,3.35
2018-01-20T09:47:43.441Z,4.00
2018-01-20T09:50:10.992Z,3.50
2018-01-20T09:52:38.551Z,3.75
2018-01-20T09:55:06.102Z,3.03
2018-01-20T09:57:33.678Z,3.35
2018-01-20T10:00:01.247Z,3.45
2018-01-20T10:02:28.788Z,3.08
2018-01-20T10:04:56.342Z,3.05
2018-01-20T10:07:23.945Z,3.78
2018-01-20T10:09:51.524Z,3.92
2018-01-20T10:12:19.849Z,4.75
2018-01-20T10:14:48.454Z,8.85
2018-01-20T10:17:16.131Z,5.12
2018-01-20T10:19:43.708Z,3.62
2018-01-20T10:22:11.268Z,3.10
2018-01-20T10:24:39.618Z,3.47
2018-01-20T10:27:07.190Z,3.90
2018-01-20T10:29:35.587Z,3.72
2018-01-20T10:32:03.242Z,3.35
2018-01-20T10:34:30.813Z,3.90
2018-01-20T10:36:59.138Z,3.58
2018-01-20T10:39:26.751Z,4.20
2018-01-20T10:41:54.472Z,4.70
2018-01-20T10:44:22.009Z,3.58
2018-01-20T10:46:49.570Z,4.40
2018-01-20T10:49:17.127Z,4.25
2018-01-20T10:51:45.468Z,4.80
2018-01-20T10:54:13.037Z,5.12
2018-01-20T10:56:40.601Z,4.87
2018-01-20T10:59:08.182Z,5.45
2018-01-20T11:01:35.878Z,4.65
2018-01-20T11:04:03.446Z,4.68
2018-01-20T11:06:31.014Z,4.22
2018-01-20T11:08:58.562Z,4.18
2018-01-20T11:11:26.957Z,3.42
2018-01-20T11:13:54.515Z,4.87
2018-01-20T11:16:22.124Z,3.30
2018-01-20T11:18:49.681Z,3.60
2018-01-20T11:21:17.230Z,4.30
2018-01-20T11:23:44.794Z,4.60
2018-01-20T11:26:12.473Z,3.12
2018-01-20T11:28:40.853Z,3.78
2018-01-20T11:31:08.424Z,3.55
2018-01-20T11:33:36.746Z,3.70
2018-01-20T11:36:04.457Z,3.78
2018-01-20T11:38:32.060Z,4.12
2018-01-20T11:40:59.593Z,4.70
2018-01-20T11:43:27.925Z,3.75
2018-01-20T11:45:55.470Z,4.30
2018-01-20T11:48:23.047Z,4.62
2018-01-20T11:50:50.588Z,6.45
2018-01-20T11:53:18.318Z,6.93
2018-01-20T11:55:46.641Z,5.70
2018-01-20T11:58:14.715Z,5.10
2018-01-20T12:00:42.282Z,5.00
2018-01-20T12:03:10.057Z,5.00
2018-01-20T12:05:37.613Z,4.70
2018-01-20T12:08:05.171Z,5.12
2018-01-20T12:10:32.746Z,5.25
2018-01-20T12:13:00.313Z,5.12
2018-01-20T12:15:27.916Z,4.32
2018-01-20T12:17:56.250Z,4.00
2018-01-20T12:20:23.796Z,5.10
2018-01-20T12:22:51.369Z,4.65
2018-01-20T12:25:18.915Z,5.28
2018-01-20T12:27:46.503Z,7.90
2018-01-20T12:30:14.049Z,5.78
2018-01-20T12:32:41.609Z,5.22
2018-01-20T12:35:09.154Z,5.45
2018-01-20T12:37:36.753Z,5.30
2018-01-20T12:40:04.313Z,4.90
2018-01-20T12:42:31.868Z,4.60
2018-01-20T12:44:59.473Z,4.57
2018-01-20T12:47:27.832Z,4.12
2018-01-20T12:49:55.396Z,4.07
2018-01-20T12:52:22.965Z,4.40
2018-01-20T12:54:50.523Z,4.95
2018-01-20T12:57:18.077Z,4.15
2018-01-20T12:59:45.648Z,4.75
2018-01-20T13:02:13.206Z,5.40
2018-01-20T13:04:41.839Z,4.72
2018-01-20T13:07:09.388Z,4.43
2018-01-20T13:09:37.021Z,3.47
2018-01-20T13:12:04.575Z,4.90
2018-01-20T13:14:32.186Z,4.07
2018-01-20T13:16:59.834Z,2.78
2018-01-20T13:19:28.144Z,2.70
2018-01-20T13:21:55.695Z,2.20
2018-01-20T13:24:23.245Z,2.22
2018-01-20T13:26:50.805Z,2.10
2018-01-20T13:29:18.483Z,2.35
2018-01-20T13:31:46.102Z,2.58
2018-01-20T13:34:14.456Z,2.33
2018-01-20T13:36:42.025Z,2.40
2018-01-20T13:39:09.613Z,1.80
2018-01-20T13:41:37.928Z,1.95
2018-01-20T13:44:05.482Z,2.10
2018-01-20T13:46:33.034Z,2.17
2018-01-20T13:49:00.617Z,2.10
2018-01-20T13:51:28.157Z,2.97
2018-01-20T13:53:55.934Z,2.25
2018-01-20T13:56:23.477Z,1.60
2018-01-20T13:58:51.031Z,1.45
2018-01-20T14:01:19.348Z,1.58
2018-01-20T14:03:46.901Z,1.70
2018-01-20T14:06:14.454Z,1.20
2018-01-20T14:08:42.121Z,1.10
2018-01-20T14:11:09.734Z,1.50
2018-01-20T14:13:37.301Z,1.52
2018-01-20T14:16:04.859Z,1.95
2018-01-20T14:18:33.195Z,1.75
2018-01-20T14:21:00.771Z,2.87
2018-01-20T14:23:28.341Z,2.83
2018-01-20T14:25:55.908Z,2.85
2018-01-20T14:28:23.566Z,2.42
2018-01-20T14:30:51.173Z,2.30
2018-01-20T14:33:19.481Z,2.20
2018-01-20T14:35:47.077Z,1.83
2018-01-20T14:38:14.621Z,2.45
2018-01-20T14:40:42.204Z,3.30
2018-01-20T14:43:09.742Z,2.50
2018-01-20T14:45:37.397Z,2.75
2018-01-20T14:48:04.963Z,2.55
2018-01-20T14:50:32.522Z,1.77
2018-01-20T14:53:00.190Z,1.73
2018-01-20T14:55:27.738Z,2.65
2018-01-20T14:57:55.294Z,2.70
2018-01-20T15:00:22.870Z,2.50
2018-01-20T15:02:50.418Z,3.05
2018-01-20T15:05:17.995Z,4.20
2018-01-20T15:07:45.635Z,3.95
2018-01-20T15:10:13.975Z,3.25
2018-01-20T15:12:41.532Z,3.30
2018-01-20T15:15:09.862Z,3.05
2018-01-20T15:17:37.409Z,1.75
2018-01-20T15:20:05.863Z,2.60
2018-01-20T15:22:34.219Z,3.00
2018-01-20T15:25:01.790Z,2.30
2018-01-20T15:27:29.334Z,2.45
2018-01-20T15:29:56.871Z,2.55
2018-01-20T15:32:24.434Z,2.55
2018-01-20T15:34:52.005Z,2.25
2018-01-20T15:37:19.549Z,3.30
2018-01-20T15:39:47.133Z,5.25
2018-01-20T15:42:14.710Z,5.07
2018-01-20T15:44:42.250Z,5.07
2018-01-20T15:47:09.845Z,3.47
2018-01-20T15:49:37.393Z,4.53
2018-01-20T15:52:04.969Z,4.90
2018-01-20T15:54:32.533Z,3.45
2018-01-20T15:57:00.120Z,4.40
2018-01-20T15:59:28.445Z,3.87
2018-01-20T16:01:56.111Z,3.67
2018-01-20T16:04:23.705Z,3.58
2018-01-20T16:06:52.153Z,4.20
2018-01-20T16:09:19.711Z,3.75
2018-01-20T16:11:47.259Z,4.40
2018-01-20T16:14:14.865Z,3.72
2018-01-20T16:16:42.429Z,4.30
2018-01-20T16:19:10.013Z,4.87
2018-01-20T16:21:38.385Z,4.90
2018-01-20T16:24:06.757Z,5.15
2018-01-20T16:26:34.321Z,4.65
2018-01-20T16:29:02.638Z,3.85
2018-01-20T16:31:30.254Z,5.37
2018-01-20T16:33:57.824Z,4.45
2018-01-20T16:36:26.196Z,4.82
2018-01-20T16:38:53.736Z,5.47
2018-01-20T16:41:21.356Z,5.37
2018-01-20T16:43:49.751Z,4.75
2018-01-20T16:46:17.300Z,6.12
2018-01-20T16:48:45.039Z,5.45
2018-01-20T16:51:13.374Z,5.78
2018-01-20T16:53:40.949Z,6.37
2018-01-20T16:56:08.513Z,6.53
2018-01-20T16:58:36.057Z,5.35
2018-01-20T17:01:03.646Z,6.18
2018-01-20T17:03:31.237Z,6.97
2018-01-20T17:05:59.551Z,6.28
2018-01-20T17:08:27.135Z,6.40
2018-01-20T17:10:54.706Z,7.22
2018-01-20T17:13:22.278Z,7.40
2018-01-20T17:15:50.194Z,5.55
2018-01-20T17:18:17.792Z,8.85
2018-01-20T17:20:45.365Z,8.70
2018-01-20T17:23:12.968Z,9.30
2018-01-20T17:25:40.518Z,8.75
2018-01-20T17:28:09.946Z,7.80
2018-01-20T17:30:37.796Z,11.10
2018-01-20T17:33:06.190Z,9.38
2018-01-20T17:35:33.762Z,10.82
2018-01-20T17:38:01.346Z,8.43
2018-01-20T17:40:28.913Z,8.45
2018-01-20T17:42:56.582Z,11.60
2018-01-20T17:45:24.256Z,8.73
2018-01-20T17:47:51.830Z,8.80
2018-01-20T17:50:20.569Z,8.20
2018-01-20T17:52:48.133Z,8.23
2018-01-20T17:55:15.810Z,8.50
2018-01-20T17:57:43.390Z,10.93
2018-01-20T18:00:10.969Z,9.25
2018-01-20T18:02:38.522Z,7.45
2018-01-20T18:05:06.855Z,6.07
2018-01-20T18:07:34.418Z,9.00
2018-01-20T18:10:02.018Z,7.95
2018-01-20T18:12:29.604Z,8.77
2018-01-20T18:14:58.106Z,9.82
2018-01-20T18:17:25.654Z,8.55
2018-01-20T18:19:54.016Z,9.18
2018-01-20T18:22:21.601Z,9.20
2018-01-20T18:24:49.957Z,7.95
2018-01-20T18:27:18.327Z,9.20
2018-01-20T18:29:45.877Z,9.82
2018-01-20T18:32:14.282Z,9.00
2018-01-20T18:34:42.652Z,9.70
2018-01-20T18:37:10.362Z,9.73
2018-01-20T18:39:37.926Z,10.80
2018-01-20T18:42:05.503Z,10.10
2018-01-20T18:44:33.057Z,8.55
2018-01-20T18:47:00.687Z,10.32
2018-01-20T18:49:29.218Z,10.20
2018-01-20T18:51:56.875Z,10.10
2018-01-20T18:54:24.464Z,9.25
2018-01-20T18:56:52.109Z,12.20
2018-01-20T18:59:20.594Z,13.18
2018-01-20T19:01:48.186Z,15.88
2018-01-20T19:04:15.783Z,11.63
2018-01-20T19:06:43.765Z,14.20
2018-01-20T19:09:11.330Z,18.92
2018-01-20T19:11:38.936Z,15.65
2018-01-20T19:14:06.533Z,15.13
2018-01-20T19:16:34.130Z,12.02
2018-01-20T19:19:01.700Z,11.07
2018-01-20T19:21:29.264Z,8.73
2018-01-20T19:23:56.803Z,9.77
2018-01-20T19:26:24.365Z,8.68
2018-01-20T19:28:51.937Z,8.30
2018-01-20T19:31:19.529Z,8.48
2018-01-20T19:33:48.103Z,9.82
2018-01-20T19:36:15.952Z,8.50
2018-01-20T19:38:43.953Z,9.02
2018-01-20T19:41:11.479Z,15.20
2018-01-20T19:43:39.053Z,11.88
2018-01-20T19:46:06.649Z,11.02
2018-01-20T19:48:34.226Z,9.65
2018-01-20T19:51:02.583Z,12.27
2018-01-20T19:53:30.144Z,11.52
2018-01-20T19:55:57.739Z,13.13
2018-01-20T19:58:26.157Z,9.77
2018-01-20T20:00:53.713Z,9.45
2018-01-20T20:03:21.288Z,9.25
2018-01-20T20:05:48.878Z,9.95
2018-01-20T20:08:16.459Z,10.95
2018-01-20T20:10:44.797Z,12.00
2018-01-20T20:13:12.366Z,12.13
2018-01-20T20:15:40.296Z,13.38
2018-01-20T20:18:07.858Z,12.02
2018-01-20T20:20:35.501Z,13.25
2018-01-20T20:23:03.080Z,11.10
2018-01-20T20:25:30.669Z,12.70
2018-01-20T20:27:58.229Z,10.82
2018-01-20T20:30:25.831Z,15.23
2018-01-20T20:32:53.574Z,18.23
2018-01-20T20:35:21.129Z,18.80
2018-01-20T20:37:48.729Z,15.88
2018-01-20T20:40:17.048Z,14.40
2018-01-20T20:42:44.646Z,12.45
2018-01-20T20:45:12.198Z,12.50
2018-01-20T20:47:44.227Z,11.15
2018-01-20T20:50:11.792Z,14.73
2018-01-20T20:52:39.365Z,15.02
2018-01-20T20:55:06.953Z,15.77
2018-01-20T20:57:35.427Z,18.27
2018-01-20T21:00:02.985Z,19.37
2018-01-20T21:02:30.565Z,14.40
2018-01-20T21:04:58.146Z,17.02
2018-01-20T21:07:26.508Z,15.93
2018-01-20T21:09:54.078Z,15.98
2018-01-20T21:12:21.839Z,20.52
2018-01-20T21:14:49.398Z,19.27
2018-01-20T21:17:16.967Z,18.23
2018-01-20T21:19:45.292Z,19.42
2018-01-20T21:22:12.855Z,20.62
2018-01-20T21:24:40.470Z,18.87
2018-01-20T21:27:08.853Z,21.27
2018-01-20T21:29:37.218Z,19.48
2018-01-20T21:32:04.777Z,18.80
2018-01-20T21:34:32.337Z,20.60
2018-01-20T21:36:59.940Z,21.10
2018-01-20T21:39:27.511Z,24.17
2018-01-20T21:41:55.082Z,21.70
2018-01-20T21:44:22.641Z,20.40
2018-01-20T21:46:50.220Z,20.70
2018-01-20T21:49:17.809Z,22.37
2018-01-20T21:51:46.141Z,23.30
2018-01-20T21:54:13.772Z,23.73
2018-01-20T21:56:42.082Z,23.25
2018-01-20T21:59:09.682Z,21.77
2018-01-20T22:01:37.275Z,23.75
2018-01-20T22:04:04.905Z,23.80
2018-01-20T22:06:32.626Z,21.87
2018-01-20T22:09:00.221Z,26.08
2018-01-20T22:11:27.758Z,23.48
2018-01-20T22:13:55.325Z,22.15
2018-01-20T22:16:23.539Z,23.65
2018-01-20T22:18:51.164Z,27.48
2018-01-20T22:21:18.722Z,24.17
2018-01-20T22:23:46.265Z,25.85
2018-01-20T22:26:13.811Z,26.62
2018-01-20T22:28:41.659Z,27.02
2018-01-20T22:31:09.481Z,26.65
2018-01-20T22:33:37.182Z,27.13
2018-01-20T22:36:05.661Z,29.02
2018-01-20T22:38:33.440Z,25.58
2018-01-20T22:41:02.047Z,29.52
2018-01-20T22:43:30.620Z,28.73
2018-01-20T22:45:58.255Z,26.92
2018-01-20T22:48:26.074Z,30.60
2018-01-20T22:50:54.558Z,29.67
2018-01-20T22:53:22.342Z,28.77
2018-01-20T22:55:50.253Z,28.75
2018-01-20T22:58:18.091Z,29.55
2018-01-20T23:00:45.767Z,29.55
2018-01-20T23:03:13.499Z,29.83
2018-01-20T23:05:41.137Z,28.23
2018-01-20T23:08:08.834Z,25.92
2018-01-20T23:10:36.470Z,25.30
2018-01-20T23:13:04.073Z,27.65
2018-01-20T23:15:32.709Z,27.73
2018-01-20T23:18:00.312Z,27.00
2018-01-20T23:20:27.894Z,25.95
2018-01-20T23:22:55.448Z,26.23
2018-01-20T23:25:23.009Z,26.10
2018-01-20T23:27:50.769Z,26.15
2018-01-20T23:30:18.320Z,27.13
2018-01-20T23:32:45.876Z,23.95
2018-01-20T23:35:13.453Z,27.20
2018-01-20T23:37:41.180Z,27.40
2018-01-20T23:40:09.621Z,26.40
2018-01-20T23:42:37.189Z,28.55
2018-01-20T23:45:04.747Z,29.55
2018-01-20T23:47:32.322Z,28.42
2018-01-20T23:50:00.650Z,29.10
2018-01-20T23:52:28.349Z,29.83
2018-01-20T23:54:55.913Z,31.23
2018-01-20T23:57:23.466Z,30.27
2018-01-20T23:59:51.018Z,29.73
